METAR Data
IDs: Format: Raw Decoded Include TAF

Data at: 2107 UTC 18 Sep 2018

KSHV 182056Z VRB05KT 10SM FEW060 35/21 A2990 RMK AO2 SLP119 T03500211 56022
KSHV 181956Z 34003KT 7SM FEW055 35/22 A2991 RMK AO2 SLP123 HAZY TCU DSNT ALQDS T03500217
KSHV 181856Z 24006KT 7SM FEW050 34/22 A2993 RMK AO2 SLP130 HAZY TCU DSNT ALQDS T03440217
KSHV 181756Z VRB03KT 7SM FEW045 35/22 A2996 RMK AO2 SLP141 HAZY T03500222 10350 20233 58011
KSHV 181656Z 30004KT 10SM CLR 33/23 A2999 RMK AO2 SLP149 T03330228
KSHV 181556Z 34004KT 10SM CLR 33/23 A3000 RMK AO2 SLP153 T03280233
KSHV 181456Z 28004KT 10SM CLR 31/23 A3000 RMK AO2 SLP153 T03060233 51006 $
KSHV 181356Z 30003KT 8SM CLR 28/24 A2999 RMK AO2 SLP152 T02830244 $
KSHV 181256Z 26003KT 5SM BR CLR 25/24 A2999 RMK AO2 SLP152 T02500239
KSHV 181156Z 00000KT 6SM BR CLR 24/23 A2998 RMK AO2 SLP146 T02390228 10261 20233 53009
KSHV 181056Z 00000KT 7SM CLR 24/23 A2997 RMK AO2 SLP143 T02440228
KSHV 180956Z 00000KT 6SM BR CLR 23/22 A2996 RMK AO2 SLP139 T02330222
KSHV 180856Z 00000KT 7SM CLR 24/23 A2995 RMK AO2 SLP137 T02440233 56003
KSHV 180756Z 00000KT 8SM CLR 26/23 A2995 RMK AO2 SLP139 T02560233
KSHV 180656Z 26003KT 9SM CLR 26/23 A2995 RMK AO2 SLP138 T02560233
KSHV 180556Z 00000KT 10SM CLR 26/23 A2996 RMK AO2 SLP140 T02610233 10322 20250 403560233 51006
KSHV 180456Z 00000KT 10SM CLR 27/23 A2996 RMK AO2 SLP140 T02720228
KSHV 180356Z 23003KT 10SM CLR 28/23 A2996 RMK AO2 SLP139 T02780228
KSHV 180256Z 00000KT 10SM CLR 28/22 A2994 RMK AO2 SLP135 T02830222 53016
KSHV 180156Z 00000KT 10SM CLR 28/22 A2992 RMK AO2 SLP128 T02830217
KSHV 180056Z 00000KT 10SM FEW250 29/21 A2990 RMK AO2 SLP123 T02890211
KSHV 172356Z 04004KT 10SM FEW055 FEW160 32/19 A2989 RMK AO2 SLP119 T03220189 10356 20322 56005
KSHV 172256Z 00000KT 10SM FEW055 FEW160 35/18 A2990 RMK AO2 SLP119 CB DSNT N AND S T03500183
KSHV 172156Z 31005KT 10SM CLR 35/19 A2990 RMK AO2 SLP120 T03500194
KSHV 172056Z 01005KT 10SM FEW055 35/20 A2991 RMK AO2 SLP123 CB DSNT SE AND SW NUV SW TCU DSNT E-SE-SW T03500200 56018
KSHV 171956Z 35009KT 10SM FEW055 34/21 A2992 RMK AO2 SLP126 CB DSNT NE AND SE-SW MOV SE TCU DSNT ALQDS T03440206
KSHV 171856Z 26007KT 10SM SCT050 34/21 A2994 RMK AO2 LTG DSNT SW SLP134 CB DSNT N AND SE MOV SE TCU DSNT ALQDS T03440211
KSHV 171756Z 00000KT 10SM SCT050 33/19 A2996 RMK AO2 SLP142 T03330194 10339 20233 58007
KSHV 171656Z 00000KT 10SM FEW038 FEW150 33/21 A2998 RMK AO2 SLP147 T03330211
KSHV 171556Z 18004KT 10SM SCT150 32/22 A2999 RMK AO2 SLP151 T03220222
KSHV 171456Z 15004KT 10SM SCT150 31/23 A2998 RMK AO2 SLP149 T03110228 51016
KSHV 171356Z 00000KT 10SM SCT150 28/23 A2997 RMK AO2 SLP144 T02830233
KSHV 171256Z 00000KT 10SM SCT150 26/23 A2996 RMK AO2 SLP140 T02560233
KSHV 171156Z 00000KT 10SM SCT150 23/22 A2994 RMK AO2 SLP133 T02330222 10267 20233 53007
KSHV 171056Z 00000KT 10SM SCT150 24/22 A2993 RMK AO2 SLP130 T02390222
KSHV 170956Z 00000KT 10SM FEW150 24/23 A2992 RMK AO2 SLP126 T02390228